Time;durP1;ratioP1;P1;durP2;ratioP2;P2;SDS_P1;SDS_P2;PMS_P1;PMS_P2;Temp;Humidity;BMP_temperature;BMP_pressure;BME280_temperature;BME280_humidity;BME280_pressure;Samples;Min_cycle;Max_cycle;Signal;HPM_P1;HPM_P2
2023/07/13 00:01:55;;;;;;;1.23;1.13;;;22.20;77.30;;;22.72;nan;100538.41;5024012;28;20632;-68
2023/07/13 00:04:27;;;;;;;2.10;0.97;;;22.20;77.80;;;22.66;nan;100537.31;5027818;28;20641;-68
2023/07/13 00:06:56;;;;;;;0.80;0.80;;;22.10;78.10;;;22.61;nan;100552.19;5016383;28;20599;-69
2023/07/13 00:09:23;;;;;;;1.00;0.93;;;22.10;78.30;;;22.53;nan;100547.78;5017956;28;20637;-69
2023/07/13 00:11:54;;;;;;;0.90;0.90;;;22.00;78.70;;;22.46;nan;100552.22;5031857;28;20632;-70
2023/07/13 00:14:22;;;;;;;0.83;0.83;;;21.90;78.90;;;22.43;nan;100555.25;5014423;28;21018;-68
2023/07/13 00:16:49;;;;;;;0.80;0.80;;;21.90;79.00;;;22.38;nan;100549.69;5017251;28;20625;-67
2023/07/13 00:19:16;;;;;;;0.87;0.87;;;21.90;79.20;;;22.34;nan;100564.34;5032459;28;20663;-69
2023/07/13 00:21:44;;;;;;;1.70;0.77;;;21.80;79.30;;;22.30;nan;100558.59;5026896;28;20629;-67
2023/07/13 00:24:18;;;;;;;2.63;1.20;;;21.70;79.20;;;22.28;nan;100565.09;5031059;28;20649;-68
2023/07/13 00:26:45;;;;;;;0.90;0.90;;;21.70;79.30;;;22.24;nan;100567.31;5034410;28;20643;-68
2023/07/13 00:29:16;;;;;;;1.23;1.00;;;21.70;79.80;;;22.20;nan;100560.72;5027029;28;20662;-68
2023/07/13 00:31:44;;;;;;;0.83;0.83;;;21.70;79.80;;;22.18;nan;100569.88;5027563;28;20629;-69
2023/07/13 00:34:11;;;;;;;0.90;0.90;;;21.70;80.00;;;22.18;nan;100567.22;5030979;28;20640;-68
2023/07/13 00:36:38;;;;;;;2.07;1.20;;;21.60;80.40;;;22.15;nan;100562.28;5034424;28;20616;-68
2023/07/13 00:39:06;;;;;;;0.70;0.70;;;21.60;80.50;;;22.12;nan;100566.16;5019814;28;20660;-69
2023/07/13 00:41:33;;;;;;;1.43;0.90;;;21.60;80.90;;;22.10;nan;100570.00;5034102;28;20597;-69
2023/07/13 00:44:00;;;;;;;0.90;0.90;;;21.60;81.20;;;22.09;nan;100565.69;5014578;28;20621;-68
2023/07/13 00:46:33;;;;;;;1.00;1.00;;;21.60;81.30;;;22.07;nan;100565.03;5025921;28;20648;-68
2023/07/13 00:49:05;;;;;;;1.27;1.17;;;21.50;81.50;;;22.06;nan;100563.41;5032917;28;20683;-70
2023/07/13 00:51:49;;;;;;;1.07;0.97;;;21.50;81.50;;;22.05;nan;100567.06;5035316;28;21247;-68
2023/07/13 00:54:23;;;;;;;0.90;0.90;;;21.50;82.00;;;21.98;nan;100563.50;5029657;28;20652;-68
2023/07/13 00:56:57;;;;;;;1.00;0.90;;;21.50;82.10;;;21.90;nan;100568.91;5023595;28;21198;-68
2023/07/13 00:59:25;;;;;;;0.80;0.80;;;21.40;82.30;;;21.87;nan;100570.09;5020400;28;20632;-67
2023/07/13 01:01:52;;;;;;;3.53;1.23;;;21.40;82.20;;;21.84;nan;100585.59;5019393;28;21223;-68
2023/07/13 01:04:19;;;;;;;1.00;1.00;;;21.30;82.70;;;21.79;nan;100577.31;5012669;28;21258;-71
2023/07/13 01:06:47;;;;;;;1.13;1.13;;;21.30;83.40;;;21.75;nan;100574.22;5028842;28;20638;-69
2023/07/13 01:09:15;;;;;;;1.07;0.80;;;21.20;82.80;;;21.76;nan;100572.38;5031447;28;20659;-69
2023/07/13 01:11:44;;;;;;;6.97;1.40;;;21.20;83.10;;;21.78;nan;100578.34;5028842;28;20641;-69
2023/07/13 01:14:12;;;;;;;7.20;1.00;;;21.20;83.40;;;21.79;nan;100577.31;5017410;28;21433;-69
2023/07/13 01:16:43;;;;;;;1.17;1.17;;;21.30;83.40;;;21.80;nan;100571.84;5030206;28;20668;-68
2023/07/13 01:19:36;;;;;;;1.23;1.17;;;21.30;83.70;;;21.79;nan;100570.16;5022120;28;20655;-69
2023/07/13 01:22:08;;;;;;;1.23;1.23;;;21.30;83.60;;;21.80;nan;100573.66;5023501;28;20640;-69
2023/07/13 01:24:36;;;;;;;1.27;1.17;;;21.30;83.80;;;21.77;nan;100560.72;5031818;28;20629;-68
2023/07/13 01:27:05;;;;;;;1.50;1.27;;;21.20;83.50;;;21.75;nan;100570.72;5039075;28;20632;-68
2023/07/13 01:29:41;;;;;;;1.30;1.20;;;21.20;83.20;;;21.70;nan;100568.63;5026021;28;20636;-68
2023/07/13 01:32:14;;;;;;;1.00;1.00;;;21.20;83.20;;;21.62;nan;100563.41;5031794;28;20630;-69
2023/07/13 01:34:44;;;;;;;1.87;1.40;;;21.10;83.30;;;21.61;nan;100567.88;5024302;28;20695;-68
2023/07/13 01:37:12;;;;;;;2.73;1.27;;;21.10;83.60;;;21.54;nan;100566.16;5032001;28;20988;-68
2023/07/13 01:39:39;;;;;;;0.90;0.90;;;21.10;83.40;;;21.46;nan;100569.72;5031754;28;20620;-67
2023/07/13 01:42:06;;;;;;;1.57;1.03;;;21.00;83.70;;;21.41;nan;100563.28;5031637;28;20613;-69
2023/07/13 01:44:33;;;;;;;7.70;1.50;;;20.90;83.80;;;21.33;nan;100563.38;5016499;28;20646;-68
2023/07/13 01:47:02;;;;;;;1.87;1.13;;;20.90;83.90;;;21.28;nan;100573.69;5020724;28;21175;-69
2023/07/13 01:49:29;;;;;;;1.00;1.00;;;20.80;84.20;;;21.22;nan;100559.34;5027497;28;20629;-69
2023/07/13 01:51:56;;;;;;;2.00;1.40;;;20.80;84.50;;;21.18;nan;100558.06;5027965;28;21007;-68
2023/07/13 01:54:23;;;;;;;1.20;1.07;;;20.70;84.60;;;21.14;nan;100567.38;5013913;28;21027;-69
2023/07/13 01:56:50;;;;;;;1.10;1.10;;;20.70;84.90;;;21.11;nan;100573.03;5016481;28;20644;-69
2023/07/13 01:59:17;;;;;;;0.97;0.97;;;20.60;84.90;;;21.06;nan;100575.38;5009350;28;20665;-69
2023/07/13 02:01:44;;;;;;;1.33;1.20;;;20.60;85.10;;;21.01;nan;100580.41;5013620;28;20676;-69
2023/07/13 02:04:12;;;;;;;1.00;1.00;;;20.60;85.30;;;20.97;nan;100581.75;5028755;28;20620;-69
2023/07/13 02:06:39;;;;;;;1.47;1.33;;;20.50;85.40;;;20.95;nan;100593.53;5017328;28;20636;-69
2023/07/13 02:09:06;;;;;;;0.90;0.90;;;20.50;85.90;;;20.87;nan;100599.72;5030653;28;20664;-69
2023/07/13 02:11:33;;;;;;;1.00;1.00;;;20.40;86.00;;;20.81;nan;100601.25;5022869;28;20636;-69
2023/07/13 02:14:01;;;;;;;1.30;1.20;;;20.30;86.30;;;20.78;nan;100604.25;5031594;28;20617;-67
2023/07/13 02:16:30;;;;;;;1.93;1.07;;;20.30;86.80;;;20.75;nan;100603.78;5025759;28;20684;-69
2023/07/13 02:18:58;;;;;;;1.00;1.00;;;20.30;86.90;;;20.72;nan;100602.31;5017186;28;20661;-68
2023/07/13 02:21:25;;;;;;;1.10;1.00;;;20.20;87.10;;;20.65;nan;100601.38;5019716;28;20656;-68
2023/07/13 02:23:52;;;;;;;1.33;1.10;;;20.20;87.30;;;20.61;nan;100599.25;5027164;28;20616;-69
2023/07/13 02:26:19;;;;;;;0.80;0.80;;;20.10;87.60;;;20.59;nan;100603.91;5028395;28;20984;-66
2023/07/13 02:28:46;;;;;;;3.10;0.97;;;20.10;87.90;;;20.61;nan;100602.75;5021303;28;20661;-67
2023/07/13 02:31:15;;;;;;;1.07;1.03;;;20.20;88.20;;;20.59;nan;100601.25;5018585;28;20641;-70
2023/07/13 02:33:43;;;;;;;0.70;0.70;;;20.10;88.30;;;20.54;nan;100606.25;5028937;28;20616;-69
2023/07/13 02:36:11;;;;;;;1.10;1.10;;;20.10;88.70;;;20.49;nan;100611.25;5017643;28;21236;-69
2023/07/13 02:38:39;;;;;;;1.10;1.10;;;20.00;88.80;;;20.48;nan;100607.78;5011670;28;20653;-69
2023/07/13 02:41:08;;;;;;;4.20;1.47;;;20.00;89.20;;;20.43;nan;100604.81;5027957;28;21150;-69
2023/07/13 02:43:37;;;;;;;1.17;1.17;;;20.00;89.50;;;20.40;nan;100599.06;5028461;28;20605;-68
2023/07/13 02:46:07;;;;;;;0.90;0.90;;;19.90;89.50;;;20.37;nan;100605.53;5016733;28;20644;-68
2023/07/13 02:48:35;;;;;;;0.97;0.90;;;19.90;89.90;;;20.36;nan;100603.06;5021171;28;20671;-70
2023/07/13 02:51:02;;;;;;;0.80;0.77;;;19.90;90.10;;;20.35;nan;100606.69;5021299;28;20624;-69
2023/07/13 02:53:30;;;;;;;1.03;0.93;;;19.90;90.10;;;20.27;nan;100596.16;5015224;28;20641;-68
2023/07/13 02:55:57;;;;;;;1.30;1.20;;;19.80;90.20;;;20.20;nan;100592.50;5013504;28;20642;-69
2023/07/13 02:58:24;;;;;;;0.97;0.97;;;19.80;90.60;;;20.12;nan;100593.38;5023274;28;20664;-69
2023/07/13 03:00:51;;;;;;;0.90;0.90;;;19.70;90.70;;;20.08;nan;100603.47;5028638;28;21191;-69
2023/07/13 03:03:18;;;;;;;0.80;0.80;;;19.60;90.80;;;20.07;nan;100608.94;5022084;28;20637;-71
2023/07/13 03:05:50;;;;;;;1.00;1.00;;;19.60;91.00;;;20.04;nan;100610.09;5030124;28;20625;-68
2023/07/13 03:08:18;;;;;;;2.53;1.33;;;19.60;91.10;;;20.01;nan;100605.16;5018514;28;20675;-69
2023/07/13 03:10:45;;;;;;;0.97;0.97;;;19.50;91.40;;;19.99;nan;100616.94;5007485;28;20692;-69
2023/07/13 03:13:12;;;;;;;1.83;0.87;;;19.50;91.60;;;19.99;nan;100612.47;5011081;28;20629;-70
2023/07/13 03:15:39;;;;;;;0.93;0.93;;;19.50;91.60;;;19.94;nan;100612.13;5008786;28;20676;-69
2023/07/13 03:18:06;;;;;;;1.00;1.00;;;19.50;91.70;;;19.92;nan;100606.19;5021185;28;20671;-69
2023/07/13 03:20:34;;;;;;;1.00;1.00;;;19.50;91.90;;;19.89;nan;100611.81;5029458;28;20608;-68
2023/07/13 03:23:04;;;;;;;1.20;1.20;;;19.40;91.90;;;19.90;nan;100602.88;5026644;28;20640;-68
2023/07/13 03:25:31;;;;;;;1.13;1.07;;;19.40;92.10;;;19.89;nan;100603.88;5029557;28;20617;-68
2023/07/13 03:27:58;;;;;;;0.80;0.80;;;19.50;92.20;;;19.92;nan;100605.34;5026408;28;20663;-69
2023/07/13 03:30:25;;;;;;;1.17;1.13;;;19.50;92.30;;;19.96;nan;100602.19;5028107;28;21136;-68
2023/07/13 03:32:52;;;;;;;1.57;1.47;;;19.50;92.30;;;19.99;nan;100607.16;5027751;28;20641;-67
2023/07/13 03:35:19;;;;;;;1.77;1.60;;;19.50;92.40;;;20.02;nan;100609.44;5024366;28;20673;-68
2023/07/13 03:37:46;;;;;;;1.30;1.30;;;19.60;92.60;;;20.06;nan;100613.41;5015160;28;20656;-69
2023/07/13 03:40:13;;;;;;;1.67;1.57;;;19.60;92.80;;;20.11;nan;100611.06;5026113;28;20690;-69
2023/07/13 03:42:41;;;;;;;2.23;1.80;;;19.70;93.00;;;20.17;nan;100611.41;5008923;28;20609;-71
2023/07/13 03:45:08;;;;;;;1.87;1.60;;;19.70;93.00;;;20.13;nan;100608.25;5010223;28;21265;-68
2023/07/13 03:47:35;;;;;;;1.67;1.57;;;19.70;93.30;;;20.12;nan;100612.72;5028397;28;20664;-69
2023/07/13 03:50:03;;;;;;;1.67;1.57;;;19.70;93.50;;;20.12;nan;100617.22;5026079;28;20709;-67
2023/07/13 03:52:30;;;;;;;1.70;1.47;;;19.70;93.60;;;20.17;nan;100619.34;5029337;28;20628;-69
2023/07/13 03:54:57;;;;;;;1.60;1.50;;;19.70;93.80;;;20.22;nan;100623.16;5014689;28;20678;-71
2023/07/13 03:57:24;;;;;;;3.23;1.50;;;19.80;93.90;;;20.30;nan;100632.88;5033163;28;21055;-67
2023/07/13 03:59:51;;;;;;;1.60;1.50;;;19.80;93.90;;;20.36;nan;100642.81;5014929;28;20633;-70
2023/07/13 04:02:18;;;;;;;1.67;1.23;;;19.90;93.90;;;20.39;nan;100639.78;5025795;28;21008;-69
2023/07/13 04:04:45;;;;;;;2.00;1.57;;;19.90;93.80;;;20.30;nan;100639.00;5014985;28;20958;-69
2023/07/13 04:07:12;;;;;;;1.50;1.40;;;19.90;94.00;;;20.32;nan;100644.13;5025085;28;20624;-69
2023/07/13 04:09:40;;;;;;;1.37;1.23;;;19.80;94.00;;;20.36;nan;100635.66;5024294;28;20636;-69
2023/07/13 04:12:07;;;;;;;1.73;1.53;;;19.90;93.80;;;20.39;nan;100632.69;5012683;28;20621;-70
2023/07/13 04:14:34;;;;;;;1.30;1.20;;;19.90;93.70;;;20.41;nan;100643.94;5007674;28;20637;-69
2023/07/13 04:17:01;;;;;;;1.70;1.60;;;19.90;93.60;;;20.51;nan;100641.88;5022312;28;20648;-69
2023/07/13 04:19:29;;;;;;;1.40;1.30;;;20.00;93.70;;;20.66;nan;100642.78;5017408;28;21000;-69
2023/07/13 04:21:55;;;;;;;1.27;1.23;;;20.20;93.70;;;20.75;nan;100647.06;5021012;28;20612;-69
2023/07/13 04:24:22;;;;;;;2.23;1.90;;;20.30;93.30;;;20.87;nan;100645.63;5012593;28;20701;-69
2023/07/13 04:26:49;;;;;;;2.07;1.97;;;20.40;93.40;;;21.18;nan;100658.06;5024839;28;21004;-70
2023/07/13 04:29:16;;;;;;;1.17;1.17;;;20.60;93.30;;;21.41;nan;100653.53;5017986;28;21310;-69
2023/07/13 04:31:43;;;;;;;1.30;1.30;;;20.90;92.90;;;21.68;nan;100654.81;5009915;28;20636;-70
2023/07/13 04:34:10;;;;;;;1.40;1.30;;;21.10;92.70;;;21.87;nan;100657.75;5016193;28;20621;-71
2023/07/13 04:36:37;;;;;;;1.60;1.50;;;21.40;91.90;;;22.04;nan;100659.22;5022498;28;20672;-67
2023/07/13 04:39:04;;;;;;;2.83;1.77;;;21.50;91.60;;;22.23;nan;100665.84;5028305;28;21263;-67
2023/07/13 04:41:31;;;;;;;3.03;2.03;;;21.70;91.30;;;22.43;nan;100672.22;5008007;28;20715;-68
2023/07/13 04:43:58;;;;;;;1.60;1.50;;;21.90;91.10;;;22.42;nan;100670.59;5006954;28;21136;-69
2023/07/13 04:46:25;;;;;;;2.17;2.07;;;21.90;90.50;;;22.29;nan;100675.72;5018749;28;20658;-69
2023/07/13 04:48:53;;;;;;;1.90;1.80;;;21.80;90.40;;;22.06;nan;100673.16;5015762;28;20669;-69
2023/07/13 04:51:20;;;;;;;4.30;2.03;;;21.60;90.60;;;21.95;nan;100664.84;5017434;28;20645;-69
2023/07/13 04:53:47;;;;;;;1.90;1.80;;;21.50;90.90;;;21.93;nan;100675.66;5023247;28;20650;-66
2023/07/13 04:56:14;;;;;;;2.07;1.83;;;21.50;91.40;;;22.05;nan;100683.97;5016116;28;20675;-68
2023/07/13 04:58:41;;;;;;;9.40;2.57;;;21.50;91.30;;;22.11;nan;100677.94;5014582;28;20668;-69
2023/07/13 05:01:09;;;;;;;2.60;2.40;;;21.60;91.10;;;22.28;nan;100684.69;5030870;28;20616;-70
2023/07/13 05:03:37;;;;;;;2.10;1.90;;;21.80;91.10;;;22.57;nan;100676.72;5031213;28;21517;-69
2023/07/13 05:06:09;;;;;;;2.07;1.87;;;22.00;91.00;;;22.94;nan;100681.03;5025001;28;21017;-70
2023/07/13 05:08:36;;;;;;;2.80;2.03;;;22.30;90.60;;;23.35;nan;100668.75;5012434;28;20754;-68
2023/07/13 05:11:05;;;;;;;9.83;2.10;;;22.70;90.10;;;23.50;nan;100666.84;5021835;28;20663;-67
2023/07/13 05:13:33;;;;;;;2.23;1.80;;;23.00;88.60;;;23.54;nan;100678.75;5022850;28;21301;-70
2023/07/13 05:16:03;;;;;;;2.57;2.07;;;23.00;88.10;;;23.52;nan;100685.28;5020087;28;20665;-68
2023/07/13 05:18:31;;;;;;;2.83;1.77;;;23.00;88.00;;;23.40;nan;100687.66;5031398;28;20660;-69
2023/07/13 05:21:01;;;;;;;6.33;2.30;;;22.90;87.60;;;23.44;nan;100693.41;5033257;28;21032;-69
2023/07/13 05:23:28;;;;;;;3.50;1.93;;;23.00;87.80;;;23.52;nan;100687.94;5028249;28;21188;-68
2023/07/13 05:25:56;;;;;;;1.80;1.70;;;23.00;87.70;;;23.62;nan;100688.44;5025643;28;20615;-68
2023/07/13 05:28:23;;;;;;;1.50;1.40;;;23.20;87.60;;;23.85;nan;100681.06;5021176;28;21202;-70
2023/07/13 05:30:50;;;;;;;2.43;2.10;;;23.40;87.30;;;23.91;nan;100691.72;5025521;28;20628;-67
2023/07/13 05:33:18;;;;;;;1.90;1.80;;;23.40;86.40;;;23.94;nan;100698.50;5021493;28;20690;-66
2023/07/13 05:35:45;;;;;;;3.83;2.30;;;23.50;86.20;;;23.91;nan;100698.91;5025172;28;21466;-68
2023/07/13 05:38:12;;;;;;;2.10;1.90;;;23.50;86.20;;;23.87;nan;100693.13;5024691;28;21021;-67
2023/07/13 05:40:42;;;;;;;1.57;1.47;;;23.40;86.80;;;24.03;nan;100701.84;5024068;28;20637;-67
2023/07/13 05:43:10;;;;;;;1.87;1.50;;;23.50;86.70;;;24.24;nan;100707.97;5029723;28;20624;-69
2023/07/13 05:45:37;;;;;;;3.00;2.00;;;23.70;86.10;;;24.39;nan;100714.00;5027210;28;20665;-69
2023/07/13 05:48:04;;;;;;;3.20;2.10;;;23.90;85.20;;;24.52;nan;100708.72;5027698;28;20666;-69
2023/07/13 05:50:32;;;;;;;2.70;2.50;;;24.00;85.00;;;24.58;nan;100712.44;5021116;28;20620;-68
2023/07/13 05:52:59;;;;;;;2.90;1.77;;;24.10;84.60;;;24.52;nan;100705.22;5024496;28;20616;-69
2023/07/13 05:55:26;;;;;;;2.17;1.97;;;24.00;84.70;;;24.65;nan;100715.94;5026992;28;20667;-66
2023/07/13 05:57:53;;;;;;;1.70;1.60;;;24.10;84.80;;;24.95;nan;100719.16;5021213;28;21083;-68
2023/07/13 06:00:20;;;;;;;1.97;1.87;;;24.30;85.00;;;25.34;nan;100724.59;5021866;28;20647;-68
2023/07/13 06:02:47;;;;;;;2.07;1.93;;;24.70;84.60;;;25.73;nan;100713.09;5024536;28;20633;-70
2023/07/13 06:05:14;;;;;;;2.40;1.80;;;25.20;83.10;;;26.02;nan;100712.69;5022776;28;20691;-68
2023/07/13 06:07:42;;;;;;;1.97;1.77;;;25.40;81.90;;;26.44;nan;100728.25;5028709;28;20679;-69
2023/07/13 06:10:09;;;;;;;1.87;1.50;;;25.80;80.90;;;26.77;nan;100733.47;5026827;28;20655;-69
2023/07/13 06:12:36;;;;;;;2.30;2.03;;;26.20;79.60;;;26.88;nan;100738.16;5023740;28;20643;-69
2023/07/13 06:15:04;;;;;;;1.57;1.47;;;26.40;78.80;;;27.18;nan;100744.59;5028678;28;21405;-69
2023/07/13 06:17:31;;;;;;;2.20;2.00;;;26.60;78.70;;;27.47;nan;100741.34;5021797;28;20680;-69
2023/07/13 06:19:58;;;;;;;1.40;1.40;;;26.90;77.80;;;27.61;nan;100740.22;5035376;28;20633;-69
2023/07/13 06:22:25;;;;;;;1.70;1.50;;;27.10;77.20;;;27.67;nan;100741.19;5018677;28;20640;-66
2023/07/13 06:24:52;;;;;;;1.20;1.10;;;27.10;77.10;;;27.84;nan;100738.75;5024561;28;20627;-69
2023/07/13 06:27:19;;;;;;;0.90;0.90;;;27.30;77.00;;;28.16;nan;100740.34;5029138;28;20676;-68
2023/07/13 06:29:46;;;;;;;1.90;1.53;;;27.50;76.30;;;28.62;nan;100743.38;5017629;28;20628;-67
2023/07/13 06:32:13;;;;;;;1.50;1.17;;;27.90;75.20;;;29.00;nan;100756.53;5027947;28;20655;-69
2023/07/13 06:34:40;;;;;;;2.50;1.73;;;28.30;73.20;;;29.47;nan;100746.78;5014877;28;20609;-68
2023/07/13 06:37:09;;;;;;;1.30;1.23;;;28.80;71.80;;;29.95;nan;100755.50;5011953;28;20927;-68
2023/07/13 06:39:37;;;;;;;2.30;1.50;;;29.30;70.70;;;30.37;nan;100757.03;5014948;28;20632;-66
2023/07/13 06:42:05;;;;;;;1.67;1.40;;;29.70;69.60;;;31.14;nan;100760.22;5010232;28;21002;-68
2023/07/13 06:44:32;;;;;;;2.70;1.30;;;30.50;68.60;;;31.66;nan;100764.41;5016574;28;20617;-70
2023/07/13 06:46:59;;;;;;;1.23;1.23;;;31.00;67.10;;;32.32;nan;100768.13;5023261;28;21513;-68
2023/07/13 06:49:27;;;;;;;5.60;1.80;;;31.70;65.50;;;32.45;nan;100773.16;5013494;28;20636;-69
2023/07/13 06:51:54;;;;;;;1.80;1.70;;;31.90;64.80;;;32.57;nan;100773.88;5023084;28;20639;-66
2023/07/13 06:54:21;;;;;;;3.17;1.73;;;32.00;63.90;;;32.83;nan;100762.31;5018008;28;20640;-67
2023/07/13 06:56:48;;;;;;;1.30;1.20;;;32.30;62.80;;;33.36;nan;100765.06;5027101;28;20644;-68
2023/07/13 06:59:15;;;;;;;1.63;1.53;;;32.90;61.00;;;34.07;nan;100773.81;5016541;28;20668;-70
2023/07/13 07:01:42;;;;;;;1.40;1.30;;;33.50;60.00;;;34.97;nan;100766.09;5029728;28;20652;-68
2023/07/13 07:04:09;;;;;;;2.10;1.33;;;34.30;56.70;;;35.57;nan;100767.31;5027644;28;20629;-69
2023/07/13 07:06:36;;;;;;;1.30;1.30;;;35.00;55.70;;;35.99;nan;100773.31;5029811;28;21160;-70
2023/07/13 07:09:03;;;;;;;1.20;1.20;;;35.40;55.30;;;36.59;nan;100775.88;5026679;28;20660;-68
2023/07/13 07:11:30;;;;;;;0.97;0.97;;;36.00;54.00;;;37.24;nan;100779.34;5010029;28;20593;-69
2023/07/13 07:13:57;;;;;;;1.30;1.30;;;36.60;52.90;;;37.72;nan;100786.63;5014054;28;20643;-69
2023/07/13 07:16:25;;;;;;;1.10;0.93;;;37.10;51.70;;;38.19;nan;100780.47;5035143;28;20675;-66
2023/07/13 07:18:52;;;;;;;1.40;1.10;;;37.60;50.80;;;38.58;nan;100785.75;5022520;28;20662;-69
2023/07/13 07:21:19;;;;;;;1.40;1.27;;;38.00;50.00;;;38.77;nan;100783.91;5030107;28;21176;-69
2023/07/13 07:23:46;;;;;;;1.33;1.23;;;38.20;49.00;;;38.93;nan;100790.81;5023762;28;20634;-68
2023/07/13 07:26:13;;;;;;;1.23;0.80;;;38.30;48.10;;;38.87;nan;100783.75;5017617;28;20649;-69
2023/07/13 07:28:41;;;;;;;1.90;1.00;;;38.30;47.70;;;38.96;nan;100781.19;5018675;28;20657;-69
2023/07/13 07:31:12;;;;;;;0.80;0.80;;;38.50;47.50;;;39.30;nan;100788.06;5016257;28;20744;-68
2023/07/13 07:33:42;;;;;;;0.97;0.97;;;38.70;47.10;;;39.54;nan;100786.06;5013484;28;20638;-71
2023/07/13 07:36:11;;;;;;;1.23;1.23;;;39.00;46.80;;;39.82;nan;100788.91;5020491;28;21040;-71
2023/07/13 07:38:41;;;;;;;1.70;1.20;;;39.30;45.80;;;40.00;nan;100779.84;5018775;28;20742;-72
2023/07/13 07:41:08;;;;;;;1.40;1.20;;;39.50;45.70;;;40.21;nan;100781.88;5013956;28;20632;-71
2023/07/13 07:43:38;;;;;;;1.00;1.00;;;39.70;45.60;;;40.31;nan;100786.34;5022453;28;20618;-71
2023/07/13 07:46:06;;;;;;;1.10;1.10;;;39.90;44.70;;;39.62;nan;100783.75;5013382;28;20638;-70
2023/07/13 07:48:33;;;;;;;1.50;1.20;;;39.40;44.70;;;39.40;nan;100781.66;5012874;28;20659;-70
2023/07/13 07:51:00;;;;;;;2.33;1.37;;;39.00;44.80;;;39.47;nan;100777.44;5010570;28;20630;-70
2023/07/13 07:53:27;;;;;;;1.00;1.00;;;39.00;45.00;;;39.64;nan;100790.56;5025809;28;20640;-70
2023/07/13 07:55:54;;;;;;;1.30;1.00;;;39.20;45.30;;;40.00;nan;100788.03;5026678;28;20632;-70
2023/07/13 07:58:24;;;;;;;0.90;0.90;;;39.60;44.30;;;40.15;nan;100788.56;5010572;28;20689;-70
2023/07/13 08:00:54;;;;;;;2.00;1.00;;;39.80;43.80;;;40.25;nan;100796.56;5011744;28;20730;-71
2023/07/13 08:03:23;;;;;;;0.80;0.80;;;39.90;43.50;;;39.57;nan;100783.88;5011828;28;21264;-69
2023/07/13 08:05:54;;;;;;;1.27;0.70;;;39.40;43.30;;;38.47;nan;100784.25;5019274;28;20717;-70
2023/07/13 08:08:24;;;;;;;1.27;0.80;;;38.40;44.00;;;37.38;nan;100785.00;5019575;28;20681;-70
2023/07/13 08:10:52;;;;;;;1.63;0.80;;;37.30;44.90;;;36.35;nan;100788.44;5009183;28;20632;-70
2023/07/13 08:13:21;;;;;;;1.53;0.83;;;36.20;45.70;;;35.08;nan;100778.66;5023242;28;20677;-69
2023/07/13 08:15:49;;;;;;;0.80;0.80;;;35.10;46.80;;;34.75;nan;100775.53;4992974;28;20637;-70
2023/07/13 08:18:16;;;;;;;0.90;0.90;;;34.50;47.50;;;35.39;nan;100786.84;5023447;28;20684;-69
2023/07/13 08:20:44;;;;;;;0.80;0.80;;;34.80;47.60;;;36.08;nan;100781.72;5028321;28;20608;-70
2023/07/13 08:23:11;;;;;;;0.97;0.90;;;35.50;46.90;;;36.74;nan;100776.91;5012019;28;20614;-69
2023/07/13 08:25:38;;;;;;;1.10;1.00;;;36.10;46.60;;;37.13;nan;100772.34;5029074;28;20639;-70
2023/07/13 08:28:06;;;;;;;1.20;1.10;;;36.70;46.30;;;37.55;nan;100780.78;5020578;28;20665;-70
2023/07/13 08:30:33;;;;;;;0.90;0.90;;;37.00;45.70;;;37.31;nan;100774.41;5021888;28;20706;-70
2023/07/13 08:33:00;;;;;;;0.93;0.93;;;37.00;45.40;;;35.85;nan;100770.31;5022054;28;20644;-69
2023/07/13 08:35:27;;;;;;;1.00;1.00;;;35.70;46.20;;;34.44;nan;100769.13;5025673;28;20659;-70
2023/07/13 08:37:54;;;;;;;1.10;1.10;;;34.40;47.30;;;33.73;nan;100769.75;5022373;28;20677;-69
2023/07/13 08:40:25;;;;;;;0.80;0.80;;;33.50;48.40;;;33.91;nan;100767.44;5012549;28;21053;-69
2023/07/13 08:42:58;;;;;;;0.87;0.87;;;33.40;48.70;;;35.10;nan;100765.63;5010597;28;21099;-69
2023/07/13 08:46:14;;;;;;;0.97;0.90;;;34.30;48.10;;;36.31;nan;100762.88;5022893;28;20642;-70
2023/07/13 08:48:58;;;;;;;1.00;1.00;;;35.40;47.00;;;36.90;nan;100762.16;5018174;28;21023;-69
2023/07/13 08:51:44;;;;;;;0.93;0.90;;;36.00;46.70;;;36.57;nan;100758.22;5025326;28;20628;-70
2023/07/13 08:54:31;;;;;;;1.00;1.00;;;35.90;47.00;;;36.01;nan;100765.72;5011784;28;20640;-68
2023/07/13 08:57:03;;;;;;;1.10;1.10;;;35.30;47.30;;;35.57;nan;100767.31;5028929;28;20670;-70
2023/07/13 08:59:34;;;;;;;1.00;1.00;;;34.80;48.10;;;34.69;nan;100766.56;5030596;28;20644;-69
2023/07/13 09:02:26;;;;;;;2.07;1.23;;;34.10;48.40;;;33.70;nan;100759.44;5019920;28;21450;-69
2023/07/13 09:05:12;;;;;;;1.60;0.80;;;33.20;49.30;;;33.02;nan;100750.13;5025081;28;20629;-69
2023/07/13 09:08:04;;;;;;;1.20;1.10;;;32.60;50.30;;;32.66;nan;100748.06;5022702;28;21240;-69
2023/07/13 09:10:45;;;;;;;0.70;0.70;;;32.10;50.90;;;32.09;nan;100748.38;5003542;28;20636;-69
2023/07/13 09:13:15;;;;;;;1.33;1.13;;;31.60;51.00;;;31.76;nan;100742.16;5019724;28;20675;-69
2023/07/13 09:15:48;;;;;;;0.80;0.80;;;31.20;51.20;;;31.65;nan;100740.38;5024995;28;20669;-70
2023/07/13 09:18:38;;;;;;;1.83;1.00;;;31.00;51.70;;;31.48;nan;100736.88;5010119;28;20671;-70
2023/07/13 09:21:13;;;;;;;0.90;0.90;;;30.90;51.80;;;31.26;nan;100742.13;5024548;28;20624;-69
2023/07/13 09:23:41;;;;;;;0.90;0.90;;;30.70;52.00;;;31.36;nan;100742.28;5024987;28;20640;-67
2023/07/13 09:26:13;;;;;;;1.10;1.00;;;30.70;51.70;;;31.23;nan;100732.66;5007382;28;20616;-69
2023/07/13 09:29:16;;;;;;;0.73;0.73;;;30.60;51.30;;;31.02;nan;100736.03;5020913;28;21021;-69
2023/07/13 09:31:49;;;;;;;1.93;0.90;;;30.40;51.50;;;30.87;nan;100737.63;5024866;28;20648;-72
2023/07/13 09:34:17;;;;;;;0.70;0.70;;;30.30;51.90;;;30.70;nan;100737.53;5017039;28;21212;-70
2023/07/13 09:36:44;;;;;;;2.60;0.90;;;30.10;51.30;;;30.49;nan;100741.69;5012065;28;20649;-69
2023/07/13 09:39:37;;;;;;;1.50;1.10;;;29.90;51.50;;;30.49;nan;100741.69;5025813;28;20685;-68
2023/07/13 09:42:16;;;;;;;0.87;0.87;;;29.90;51.50;;;30.50;nan;100737.94;5021100;28;20656;-68
2023/07/13 09:45:02;;;;;;;1.83;0.70;;;29.90;51.60;;;30.37;nan;100737.34;5024413;28;20639;-68
2023/07/13 09:47:34;;;;;;;0.90;0.60;;;29.80;51.90;;;30.16;nan;100721.78;5014824;28;20664;-69
2023/07/13 09:50:10;;;;;;;1.80;1.30;;;29.60;52.00;;;29.97;nan;100741.81;5023294;28;20640;-70
2023/07/13 09:52:44;;;;;;;0.90;0.90;;;29.40;52.60;;;29.98;nan;100744.28;5021069;28;20645;-69
2023/07/13 09:55:39;;;;;;;0.73;0.60;;;29.40;52.40;;;29.99;nan;100735.16;5023212;28;20645;-71
2023/07/13 09:58:19;;;;;;;0.67;0.67;;;29.40;52.20;;;30.19;nan;100734.78;5022083;28;21069;-70
2023/07/13 10:01:04;;;;;;;0.97;0.97;;;29.60;51.60;;;30.19;nan;100741.00;5019203;28;20617;-71
2023/07/13 10:03:37;;;;;;;0.80;0.80;;;29.70;51.50;;;30.19;nan;100730.25;5026115;28;20653;-69
2023/07/13 10:06:12;;;;;;;0.80;0.80;;;29.70;51.20;;;30.36;nan;100738.44;5019061;28;20644;-69
2023/07/13 10:08:39;;;;;;;0.60;0.60;;;29.80;50.60;;;30.67;nan;100738.81;5020968;28;20661;-67
2023/07/13 10:11:23;;;;;;;0.67;0.67;;;30.20;50.50;;;31.01;nan;100744.34;5019149;28;21426;-71
2023/07/13 10:14:01;;;;;;;1.80;0.77;;;30.40;50.00;;;31.19;nan;100752.22;5014489;28;20629;-70
2023/07/13 10:16:32;;;;;;;0.90;0.90;;;30.50;50.10;;;31.36;nan;100747.69;5016951;28;20625;-69
2023/07/13 10:19:11;;;;;;;1.40;1.07;;;30.60;50.20;;;31.14;nan;100752.13;5025669;28;20725;-69
2023/07/13 10:21:51;;;;;;;0.80;0.80;;;30.40;50.70;;;30.77;nan;100749.00;5019866;28;20633;-70
2023/07/13 10:24:23;;;;;;;0.70;0.70;;;30.10;50.80;;;30.49;nan;100754.34;5013511;28;20964;-70
2023/07/13 10:27:18;;;;;;;1.03;1.03;;;29.80;51.30;;;30.24;nan;100743.78;5001432;28;20623;-70
2023/07/13 10:29:55;;;;;;;1.17;0.73;;;29.60;51.40;;;30.06;nan;100743.09;5006782;28;20657;-69
2023/07/13 10:32:24;;;;;;;0.60;0.60;;;29.40;51.50;;;29.98;nan;100738.91;5029111;28;20620;-71
2023/07/13 10:34:55;;;;;;;0.80;0.80;;;29.30;51.80;;;29.98;nan;100741.59;4997369;28;20993;-71
2023/07/13 10:37:30;;;;;;;1.63;0.90;;;29.30;51.50;;;29.92;nan;100744.41;5020272;28;20680;-71